createdAt,value
2018-12-04T00:00:41.428Z,100383.64
2018-12-04T00:01:45.585Z,100387.55
2018-12-04T00:02:50.246Z,100403.13
2018-12-04T00:03:54.539Z,100394.88
2018-12-04T00:04:58.739Z,100404.73
2018-12-04T00:06:02.963Z,100406.34
2018-12-04T00:07:07.656Z,100398.93
2018-12-04T00:08:11.770Z,100417.25
2018-12-04T00:09:15.880Z,100418.85
2018-12-04T00:10:19.973Z,100429.48
2018-12-04T00:11:24.103Z,100430.33
2018-12-04T00:12:28.427Z,100444.94
2018-12-04T00:13:32.491Z,100436.87
2018-12-04T00:14:36.596Z,100443.36
2018-12-04T00:15:40.963Z,100449.67
2018-12-04T00:16:45.012Z,100455.11
2018-12-04T00:17:49.265Z,100445.88
2018-12-04T00:18:53.374Z,100461.27
2018-12-04T00:19:57.579Z,100471.89
2018-12-04T00:21:01.738Z,100463.92
2018-12-04T00:22:05.943Z,100471.89
2018-12-04T00:23:10.630Z,100469.88
2018-12-04T00:24:14.757Z,100478.80
2018-12-04T00:25:19.069Z,100469.09
2018-12-04T00:26:23.189Z,100485.45
2018-12-04T00:27:27.408Z,100470.17
2018-12-04T00:28:31.645Z,100501.38
2018-12-04T00:29:35.802Z,100487.73
2018-12-04T00:30:40.041Z,100494.53
2018-12-04T00:31:44.211Z,100497.03
2018-12-04T00:32:48.364Z,100502.02
2018-12-04T00:33:52.576Z,100508.30
2018-12-04T00:34:56.695Z,100513.97
2018-12-04T00:36:00.833Z,100514.45
2018-12-04T00:37:04.934Z,100517.47
2018-12-04T00:38:09.002Z,100522.54
2018-12-04T00:39:13.259Z,100516.53
2018-12-04T00:40:17.547Z,100528.75
2018-12-04T00:41:22.130Z,100536.57
2018-12-04T00:42:26.208Z,100540.92
2018-12-04T00:43:30.425Z,100546.11
2018-12-04T00:44:34.593Z,100545.95
2018-12-04T00:45:38.780Z,100543.30
2018-12-04T00:46:42.848Z,100549.46
2018-12-04T00:47:46.939Z,100554.41
2018-12-04T00:48:51.266Z,100557.22
2018-12-04T00:49:55.414Z,100563.23
2018-12-04T00:50:59.524Z,100564.07
2018-12-04T00:52:03.615Z,100567.78
2018-12-04T00:53:09.822Z,100565.83
2018-12-04T00:54:17.370Z,100569.48
2018-12-04T00:55:21.558Z,100573.80
2018-12-04T00:56:25.692Z,100577.45
2018-12-04T00:57:29.867Z,100582.55
2018-12-04T00:58:34.290Z,100575.66
2018-12-04T00:59:38.502Z,100582.78
2018-12-04T01:00:42.640Z,100589.57
2018-12-04T01:01:46.717Z,100593.19
2018-12-04T01:02:50.873Z,100594.56
2018-12-04T01:03:54.950Z,100606.73
2018-12-04T01:04:59.099Z,100606.03
2018-12-04T01:06:03.250Z,100610.02
2018-12-04T01:07:07.408Z,100614.34
2018-12-04T01:08:11.463Z,100615.66
2018-12-04T01:09:15.621Z,100617.98
2018-12-04T01:10:19.761Z,100614.48
2018-12-04T01:11:23.975Z,100614.48
2018-12-04T01:12:27.991Z,100615.33
2018-12-04T01:13:32.174Z,100612.31
2018-12-04T01:14:36.249Z,100620.28
2018-12-04T01:15:40.527Z,100622.94
2018-12-04T01:16:44.675Z,100619.91
2018-12-04T01:17:48.967Z,100624.26
2018-12-04T01:18:53.152Z,100630.53
2018-12-04T01:19:57.488Z,100639.02
2018-12-04T01:21:01.556Z,100633.70
2018-12-04T01:22:06.381Z,100638.50
2018-12-04T01:23:10.530Z,100641.16
2018-12-04T01:24:14.695Z,100642.37
2018-12-04T01:25:19.025Z,100648.86
2018-12-04T01:26:23.201Z,100650.19
2018-12-04T01:27:27.351Z,100650.55
2018-12-04T01:28:31.348Z,100650.55
2018-12-04T01:29:35.507Z,100644.18
2018-12-04T01:30:39.640Z,100649.23
2018-12-04T01:31:43.775Z,100649.70
2018-12-04T01:32:48.091Z,100656.34
2018-12-04T01:33:52.302Z,100660.48
2018-12-04T01:34:56.419Z,100667.12
2018-12-04T01:36:00.539Z,100664.09
2018-12-04T01:37:04.634Z,100674.72
2018-12-04T01:38:08.885Z,100674.35
2018-12-04T01:39:13.141Z,100673.44
2018-12-04T01:40:17.303Z,100685.97
2018-12-04T01:41:21.417Z,100680.29
2018-12-04T01:42:25.675Z,100683.58
2018-12-04T01:43:29.900Z,100692.87
2018-12-04T01:44:34.194Z,100688.52
2018-12-04T01:45:38.239Z,100688.52
2018-12-04T01:46:42.931Z,100689.84
2018-12-04T01:47:47.180Z,100693.69
2018-12-04T01:48:51.965Z,100697.19
2018-12-04T01:49:56.283Z,100699.73
2018-12-04T01:51:00.884Z,100701.91
2018-12-04T01:52:05.195Z,100697.92
2018-12-04T01:53:09.487Z,100707.06
2018-12-04T01:54:13.853Z,100708.88
2018-12-04T01:55:17.958Z,100719.50
2018-12-04T01:56:22.143Z,100715.41
2018-12-04T01:57:26.253Z,100722.52
2018-12-04T01:58:30.443Z,100722.89
2018-12-04T01:59:34.660Z,100725.17
2018-12-04T02:00:39.051Z,100724.48
2018-12-04T02:01:43.182Z,100733.77
2018-12-04T02:02:47.279Z,100735.58
2018-12-04T02:03:51.650Z,100741.85
2018-12-04T02:04:55.718Z,100744.98
2018-12-04T02:06:00.081Z,100752.25
2018-12-04T02:07:04.460Z,100752.51
2018-12-04T02:08:08.543Z,100753.95
2018-12-04T02:09:12.670Z,100759.40
2018-12-04T02:10:16.820Z,100751.69
2018-12-04T02:11:20.885Z,100750.84
2018-12-04T02:12:24.949Z,100755.30
2018-12-04T02:13:28.969Z,100753.61
2018-12-04T02:14:33.397Z,100758.58
2018-12-04T02:15:37.437Z,100760.87
2018-12-04T02:16:41.620Z,100756.19
2018-12-04T02:17:45.700Z,100767.14
2018-12-04T02:18:49.747Z,100774.25
2018-12-04T02:19:54.067Z,100778.38
2018-12-04T02:20:58.139Z,100776.66
2018-12-04T02:22:02.260Z,100782.44
2018-12-04T02:23:06.478Z,100786.09
2018-12-04T02:24:10.635Z,100784.25
2018-12-04T02:25:14.825Z,100787.41
2018-12-04T02:26:18.984Z,100789.08
2018-12-04T02:27:23.354Z,100795.86
2018-12-04T02:28:33.066Z,100795.23
2018-12-04T02:29:37.105Z,100802.02
2018-12-04T02:30:41.430Z,100805.48
2018-12-04T02:31:45.607Z,100800.31
2018-12-04T02:32:49.638Z,100804.67
2018-12-04T02:33:53.846Z,100803.34
2018-12-04T02:34:58.030Z,100800.69
2018-12-04T02:36:02.131Z,100804.16
2018-12-04T02:37:06.304Z,100802.83
2018-12-04T02:38:10.449Z,100809.13
2018-12-04T02:39:14.768Z,100805.73
2018-12-04T02:40:18.895Z,100801.42
2018-12-04T02:41:22.929Z,100797.55
2018-12-04T02:42:27.003Z,100797.17
2018-12-04T02:43:31.051Z,100799.83
2018-12-04T02:44:35.182Z,100803.95
2018-12-04T02:45:39.396Z,100802.40
2018-12-04T02:46:43.648Z,100811.55
2018-12-04T02:47:48.044Z,100812.53
2018-12-04T02:48:52.353Z,100800.81
2018-12-04T02:49:56.501Z,100810.59
2018-12-04T02:51:00.607Z,100809.27
2018-12-04T02:52:04.870Z,100812.28
2018-12-04T02:53:09.206Z,100820.11
2018-12-04T02:54:13.302Z,100820.00
2018-12-04T02:55:17.359Z,100823.84
2018-12-04T02:56:21.595Z,100825.64
2018-12-04T02:57:25.728Z,100830.62
2018-12-04T02:58:29.921Z,100838.44
2018-12-04T02:59:33.950Z,100840.25
2018-12-04T03:00:38.092Z,100842.91
2018-12-04T03:01:42.178Z,100844.00
2018-12-04T03:02:46.328Z,100853.43
2018-12-04T03:03:50.532Z,100851.73
2018-12-04T03:04:54.651Z,100854.16
2018-12-04T03:05:58.858Z,100851.61
2018-12-04T03:07:02.891Z,100850.53
2018-12-04T03:08:07.004Z,100855.59
2018-12-04T03:09:11.260Z,100855.36
2018-12-04T03:10:15.504Z,100859.45
2018-12-04T03:11:19.704Z,100857.30
2018-12-04T03:12:23.864Z,100857.78
2018-12-04T03:13:27.982Z,100863.57
2018-12-04T03:14:32.558Z,100860.17
2018-12-04T03:15:36.635Z,100869.36
2018-12-04T03:16:40.779Z,100864.76
2018-12-04T03:17:44.879Z,100867.78
2018-12-04T03:18:49.206Z,100866.83
2018-12-04T03:19:53.367Z,100868.63
2018-12-04T03:20:57.442Z,100865.02
2018-12-04T03:22:01.517Z,100875.74
2018-12-04T03:23:05.762Z,100882.01
2018-12-04T03:24:09.854Z,100882.15
2018-12-04T03:25:13.981Z,100885.28
2018-12-04T03:26:18.171Z,100884.91
2018-12-04T03:27:22.273Z,100888.78
2018-12-04T03:28:26.500Z,100886.98
2018-12-04T03:29:30.757Z,100889.49
2018-12-04T03:30:35.269Z,100889.86
2018-12-04T03:31:39.478Z,100880.82
2018-12-04T03:32:43.725Z,100893.70
2018-12-04T03:33:47.697Z,100892.38
2018-12-04T03:34:51.872Z,100895.03
2018-12-04T03:35:55.914Z,100894.93
2018-12-04T03:37:00.115Z,100896.86
2018-12-04T03:38:04.212Z,100898.29
2018-12-04T03:39:08.714Z,100900.12
2018-12-04T03:40:12.904Z,100901.56
2018-12-04T03:41:17.104Z,100910.00
2018-12-04T03:42:21.564Z,100905.31
2018-12-04T03:43:25.661Z,100902.28
2018-12-04T03:44:29.879Z,100901.31
2018-12-04T03:45:33.939Z,100910.12
2018-12-04T03:46:38.136Z,100911.11
2018-12-04T03:47:42.198Z,100911.59
2018-12-04T03:48:46.312Z,100916.42
2018-12-04T03:49:50.435Z,100919.41
2018-12-04T03:50:54.576Z,100919.07
2018-12-04T03:51:58.788Z,100923.63
2018-12-04T03:53:02.932Z,100925.58
2018-12-04T03:54:07.755Z,100919.52
2018-12-04T03:55:11.951Z,100919.66
2018-12-04T03:56:16.179Z,100924.13
2018-12-04T03:57:20.434Z,100930.28
2018-12-04T03:58:24.704Z,100928.71
2018-12-04T03:59:29.077Z,100925.69
2018-12-04T04:00:33.329Z,100937.15
2018-12-04T04:01:37.780Z,100931.95
2018-12-04T04:02:41.922Z,100939.06
2018-12-04T04:03:46.033Z,100935.22
2018-12-04T04:04:50.340Z,100940.15
2018-12-04T04:05:54.666Z,100942.80
2018-12-04T04:06:58.735Z,100944.61
2018-12-04T04:08:02.942Z,100941.95
2018-12-04T04:09:08.746Z,100943.17
2018-12-04T04:10:13.014Z,100948.24
2018-12-04T04:11:17.183Z,100950.05
2018-12-04T04:12:21.369Z,100944.37
2018-12-04T04:13:25.556Z,100946.20
2018-12-04T04:14:29.811Z,100954.03
2018-12-04T04:15:34.102Z,100950.52
2018-12-04T04:16:38.265Z,100954.50
2018-12-04T04:17:42.403Z,100958.48
2018-12-04T04:18:46.573Z,100962.13
2018-12-04T04:19:50.832Z,100964.78
2018-12-04T04:20:55.066Z,100958.62
2018-12-04T04:21:59.262Z,100968.25
2018-12-04T04:23:03.338Z,100970.42
2018-12-04T04:24:07.524Z,100972.59
2018-12-04T04:25:11.549Z,100971.03
2018-12-04T04:26:15.660Z,100977.19
2018-12-04T04:27:19.986Z,100985.16
2018-12-04T04:28:24.189Z,100982.98
2018-12-04T04:29:28.335Z,100986.00
2018-12-04T04:30:32.700Z,100983.83
2018-12-04T04:31:36.942Z,100991.31
2018-12-04T04:32:41.170Z,100988.28
2018-12-04T04:33:45.378Z,100992.74
2018-12-04T04:34:49.559Z,100997.57
2018-12-04T04:35:57.195Z,101007.34
2018-12-04T04:37:01.357Z,101016.52
2018-12-04T04:38:05.762Z,101016.14
2018-12-04T04:39:09.968Z,101018.32
2018-12-04T04:40:14.189Z,101017.09
2018-12-04T04:41:18.506Z,101022.88
2018-12-04T04:42:22.660Z,101024.72
2018-12-04T04:43:26.861Z,101017.57
2018-12-04T04:44:31.145Z,101027.58
2018-12-04T04:45:35.411Z,101023.97
2018-12-04T04:46:39.558Z,101025.30
2018-12-04T04:47:43.727Z,101034.11
2018-12-04T04:48:47.953Z,101027.09
2018-12-04T04:49:51.973Z,101031.92
2018-12-04T04:50:56.183Z,101032.06
2018-12-04T04:52:00.375Z,101036.99
2018-12-04T04:53:04.612Z,101035.05
2018-12-04T04:54:08.765Z,101034.67
2018-12-04T04:55:12.885Z,101035.89
2018-12-04T04:56:17.115Z,101039.97
2018-12-04T04:57:21.312Z,101041.53
2018-12-04T04:58:25.511Z,101037.66
2018-12-04T04:59:29.543Z,101043.81
2018-12-04T05:00:33.815Z,101044.28
2018-12-04T05:01:38.321Z,101047.92
2018-12-04T05:02:42.374Z,101054.55
2018-12-04T05:03:46.519Z,101051.52
2018-12-04T05:04:50.810Z,101052.85
2018-12-04T05:05:54.921Z,101054.17
2018-12-04T05:06:59.199Z,101059.01
2018-12-04T05:08:03.394Z,101067.34
2018-12-04T05:09:08.495Z,101065.64
2018-12-04T05:10:12.692Z,101071.80
2018-12-04T05:11:16.772Z,101063.08
2018-12-04T05:12:20.976Z,101071.65
2018-12-04T05:13:25.226Z,101076.58
2018-12-04T05:14:29.345Z,101072.59
2018-12-04T05:15:33.577Z,101081.88
2018-12-04T05:16:37.754Z,101083.20
2018-12-04T05:17:41.916Z,101085.14
2018-12-04T05:18:46.254Z,101083.34
2018-12-04T05:19:50.493Z,101083.81
2018-12-04T05:20:54.690Z,101086.84
2018-12-04T05:21:59.787Z,101091.55
2018-12-04T05:23:04.080Z,101094.44
2018-12-04T05:24:08.282Z,101095.77
2018-12-04T05:25:12.576Z,101097.34
2018-12-04T05:26:16.816Z,101098.66
2018-12-04T05:27:20.945Z,101097.14
2018-12-04T05:28:25.164Z,101095.44
2018-12-04T05:29:29.151Z,101092.41
2018-12-04T05:30:33.371Z,101097.71
2018-12-04T05:31:37.548Z,101104.72
2018-12-04T05:32:41.689Z,101104.81
2018-12-04T05:33:45.882Z,101110.97
2018-12-04T05:34:50.139Z,101113.16
2018-12-04T05:35:54.180Z,101117.23
2018-12-04T05:36:58.216Z,101124.84
2018-12-04T05:38:02.532Z,101126.64
2018-12-04T05:39:07.524Z,101130.25
2018-12-04T05:40:11.746Z,101133.38
2018-12-04T05:41:15.835Z,101132.55
2018-12-04T05:42:20.038Z,101141.09
2018-12-04T05:43:24.267Z,101134.93
2018-12-04T05:44:28.371Z,101140.52
2018-12-04T05:45:32.578Z,101144.11
2018-12-04T05:46:40.359Z,101144.21
2018-12-04T05:47:51.056Z,101145.91
2018-12-04T05:48:55.227Z,101150.84
2018-12-04T05:49:59.359Z,101151.83
2018-12-04T05:51:03.643Z,101150.84
2018-12-04T05:52:07.878Z,101151.22
2018-12-04T05:53:23.483Z,101151.83
2018-12-04T05:54:27.828Z,101145.77
2018-12-04T05:55:32.065Z,101155.52
2018-12-04T05:56:36.134Z,101147.22
2018-12-04T05:57:40.254Z,101150.22
2018-12-04T05:58:44.312Z,101161.81
2018-12-04T05:59:48.448Z,101156.59
2018-12-04T06:00:52.815Z,101159.72
2018-12-04T06:01:57.273Z,101165.50
2018-12-04T06:03:01.703Z,101172.13
2018-12-04T06:04:05.823Z,101172.13
2018-12-04T06:05:09.991Z,101176.62
2018-12-04T06:06:14.164Z,101172.73
2018-12-04T06:07:18.306Z,101174.06
2018-12-04T06:08:22.464Z,101178.98
2018-12-04T06:09:26.674Z,101186.47
2018-12-04T06:10:30.804Z,101190.92
2018-12-04T06:11:34.924Z,101191.30
2018-12-04T06:12:38.984Z,101192.16
2018-12-04T06:13:43.067Z,101192.53
2018-12-04T06:14:47.410Z,101203.01
2018-12-04T06:15:52.247Z,101201.69
2018-12-04T06:16:56.363Z,101206.14
2018-12-04T06:18:01.115Z,101205.03
2018-12-04T06:19:05.592Z,101202.13
2018-12-04T06:20:09.787Z,101209.36
2018-12-04T06:21:13.985Z,101208.98
2018-12-04T06:22:18.371Z,101214.66
2018-12-04T06:23:22.520Z,101221.77
2018-12-04T06:24:26.657Z,101222.34
2018-12-04T06:25:30.848Z,101231.14
2018-12-04T06:26:35.050Z,101227.16
2018-12-04T06:27:39.468Z,101239.57
2018-12-04T06:28:43.686Z,101235.25
2018-12-04T06:29:47.924Z,101234.27
2018-12-04T06:30:52.111Z,101236.09
2018-12-04T06:31:56.257Z,101240.08
2018-12-04T06:33:00.539Z,101249.70
2018-12-04T06:34:04.768Z,101250.17
2018-12-04T06:35:09.699Z,101257.31
2018-12-04T06:36:13.987Z,101257.31
2018-12-04T06:37:18.369Z,101255.61
2018-12-04T06:38:22.518Z,101268.48
2018-12-04T06:39:26.651Z,101263.66
2018-12-04T06:40:31.007Z,101268.11
2018-12-04T06:41:35.281Z,101273.41
2018-12-04T06:42:40.577Z,101273.91
2018-12-04T06:43:44.868Z,101277.77
2018-12-04T06:44:49.116Z,101283.54
2018-12-04T06:45:53.247Z,101281.36
2018-12-04T06:46:57.524Z,101285.84
2018-12-04T06:48:01.609Z,101286.88
2018-12-04T06:49:05.735Z,101281.58
2018-12-04T06:50:11.333Z,101289.53
2018-12-04T06:51:15.487Z,101282.91
2018-12-04T06:52:19.732Z,101288.33
2018-12-04T06:53:23.977Z,101290.13
2018-12-04T06:54:28.138Z,101297.70
2018-12-04T06:55:32.265Z,101300.57
2018-12-04T06:56:36.497Z,101298.90
2018-12-04T06:57:40.640Z,101305.14
2018-12-04T06:58:44.863Z,101309.69
2018-12-04T06:59:49.029Z,101309.42
2018-12-04T07:00:53.270Z,101308.70
2018-12-04T07:01:57.645Z,101312.67
2018-12-04T07:03:01.788Z,101315.80
2018-12-04T07:04:06.582Z,101315.06
2018-12-04T07:05:10.650Z,101316.39
2018-12-04T07:06:14.857Z,101319.13
2018-12-04T07:07:19.153Z,101326.23
2018-12-04T07:08:23.895Z,101323.58
2018-12-04T07:09:28.230Z,101331.66
2018-12-04T07:10:32.294Z,101332.51
2018-12-04T07:11:36.888Z,101335.16
2018-12-04T07:12:41.032Z,101332.69
2018-12-04T07:13:45.097Z,101337.64
2018-12-04T07:14:49.222Z,101338.84
2018-12-04T07:15:53.615Z,101345.84
2018-12-04T07:16:57.745Z,101349.83
2018-12-04T07:18:01.851Z,101355.13
2018-12-04T07:19:06.112Z,101357.31
2018-12-04T07:20:10.396Z,101361.16
2018-12-04T07:21:14.455Z,101360.69
2018-12-04T07:22:18.505Z,101362.87
2018-12-04T07:23:22.603Z,101360.69
2018-12-04T07:24:26.668Z,101365.99
2018-12-04T07:25:30.884Z,101365.99
2018-12-04T07:26:35.063Z,101371.20
2018-12-04T07:27:39.237Z,101369.88
2018-12-04T07:28:43.433Z,101373.38
2018-12-04T07:29:47.657Z,101375.06
2018-12-04T07:30:51.685Z,101382.53
2018-12-04T07:31:55.936Z,101384.25
2018-12-04T07:33:00.145Z,101392.08
2018-12-04T07:34:04.277Z,101386.77
2018-12-04T07:35:09.229Z,101389.93
2018-12-04T07:36:13.311Z,101392.20
2018-12-04T07:37:17.508Z,101392.28
2018-12-04T07:38:21.588Z,101392.28
2018-12-04T07:39:25.751Z,101394.59
2018-12-04T07:40:29.940Z,101398.56
2018-12-04T07:41:34.257Z,101399.03
2018-12-04T07:42:38.433Z,101404.34
2018-12-04T07:43:42.608Z,101405.54
2018-12-04T07:44:46.952Z,101409.98
2018-12-04T07:45:51.030Z,101416.27
2018-12-04T07:46:55.259Z,101413.14
2018-12-04T07:47:59.419Z,101421.09
2018-12-04T07:49:03.765Z,101423.75
2018-12-04T07:50:08.079Z,101427.34
2018-12-04T07:51:12.343Z,101430.93
2018-12-04T07:52:16.553Z,101433.23
2018-12-04T07:53:20.909Z,101435.29
2018-12-04T07:54:25.007Z,101436.23
2018-12-04T07:55:29.266Z,101439.27
2018-12-04T07:56:33.438Z,101441.80
2018-12-04T07:57:37.790Z,101443.03
2018-12-04T07:58:41.796Z,101448.34
2018-12-04T07:59:46.002Z,101449.66
2018-12-04T08:00:50.208Z,101448.80
2018-12-04T08:01:54.379Z,101446.63
2018-12-04T08:02:58.769Z,101456.88
2018-12-04T08:04:03.114Z,101457.23
2018-12-04T08:05:07.322Z,101455.44
2018-12-04T08:06:12.223Z,101458.47
2018-12-04T08:07:16.596Z,101462.83
2018-12-04T08:08:20.703Z,101468.48
2018-12-04T08:09:24.927Z,101466.69
2018-12-04T08:10:29.150Z,101474.91
2018-12-04T08:11:33.795Z,101476.61
2018-12-04T08:12:38.199Z,101473.49
2018-12-04T08:13:42.615Z,101479.17
2018-12-04T08:14:46.844Z,101485.80
2018-12-04T08:15:50.926Z,101486.75
2018-12-04T08:16:55.950Z,101489.40
2018-12-04T08:18:00.099Z,101488.63
2018-12-04T08:19:04.377Z,101486.57
2018-12-04T08:20:09.250Z,101495.97
2018-12-04T08:21:13.314Z,101499.44
2018-12-04T08:22:17.680Z,101499.94
2018-12-04T08:23:21.757Z,101503.06
2018-12-04T08:24:25.803Z,101502.68
2018-12-04T08:25:29.930Z,101507.59
2018-12-04T08:26:35.176Z,101510.72
2018-12-04T08:27:39.920Z,101508.57
2018-12-04T08:28:44.048Z,101507.72
2018-12-04T08:29:48.380Z,101517.46
2018-12-04T08:30:52.428Z,101515.75
2018-12-04T08:31:56.480Z,101518.41
2018-12-04T08:33:00.537Z,101525.50
2018-12-04T08:34:04.655Z,101525.62
2018-12-04T08:35:10.423Z,101525.62
2018-12-04T08:36:14.766Z,101527.50
2018-12-04T08:37:18.940Z,101528.47
2018-12-04T08:38:23.060Z,101531.59
2018-12-04T08:39:27.139Z,101538.22
2018-12-04T08:40:31.202Z,101529.02
2018-12-04T08:41:35.288Z,101535.30
2018-12-04T08:42:39.307Z,101532.27
2018-12-04T08:43:43.355Z,101538.03
2018-12-04T08:44:47.496Z,101539.47
2018-12-04T08:45:51.684Z,101550.16
2018-12-04T08:46:55.854Z,101548.95
2018-12-04T08:48:06.468Z,101552.08
2018-12-04T08:49:10.523Z,101549.12
2018-12-04T08:50:14.556Z,101552.73
2018-12-04T08:51:18.658Z,101557.66
2018-12-04T08:52:22.809Z,101560.97
2018-12-04T08:53:26.845Z,101570.63
2018-12-04T08:54:31.068Z,101569.04
2018-12-04T08:55:35.143Z,101568.27
2018-12-04T08:56:39.499Z,101579.83
2018-12-04T08:57:43.758Z,101577.73
2018-12-04T08:58:47.782Z,101578.20
2018-12-04T08:59:51.838Z,101579.06
2018-12-04T09:00:55.892Z,101581.36
2018-12-04T09:02:00.039Z,101587.98
2018-12-04T09:03:04.441Z,101591.17
2018-12-04T09:04:08.521Z,101593.09
2018-12-04T09:05:12.709Z,101590.63
2018-12-04T09:06:17.133Z,101591.95
2018-12-04T09:07:21.160Z,101601.58
2018-12-04T09:08:25.231Z,101602.08
2018-12-04T09:09:29.371Z,101602.44
2018-12-04T09:10:33.500Z,101605.01
2018-12-04T09:11:37.582Z,101601.77
2018-12-04T09:12:41.678Z,101610.38
2018-12-04T09:13:45.838Z,101605.36
2018-12-04T09:14:49.914Z,101610.46
2018-12-04T09:15:54.123Z,101614.91
2018-12-04T09:16:58.149Z,101616.23
2018-12-04T09:18:02.342Z,101612.64
2018-12-04T09:19:06.507Z,101612.56
2018-12-04T09:20:10.676Z,101619.08
2018-12-04T09:21:14.687Z,101629.01
2018-12-04T09:22:18.819Z,101630.14
2018-12-04T09:23:22.947Z,101633.06
2018-12-04T09:24:30.731Z,101633.72
2018-12-04T09:25:33.181Z,101632.58
2018-12-04T09:26:37.311Z,101641.31
2018-12-04T09:27:41.382Z,101637.69
2018-12-04T09:28:45.515Z,101642.52
2018-12-04T09:29:49.827Z,101638.16
2018-12-04T09:30:53.869Z,101646.23
2018-12-04T09:31:58.291Z,101651.14
2018-12-04T09:33:02.335Z,101657.88
2018-12-04T09:34:06.507Z,101657.96
2018-12-04T09:35:10.607Z,101664.59
2018-12-04T09:36:14.768Z,101674.80
2018-12-04T09:37:18.820Z,101665.05
2018-12-04T09:38:22.910Z,101669.50
2018-12-04T09:39:26.947Z,101669.15
2018-12-04T09:40:31.044Z,101673.13
2018-12-04T09:41:35.098Z,101673.13
2018-12-04T09:42:39.335Z,101667.44
2018-12-04T09:43:43.376Z,101669.70
2018-12-04T09:44:50.261Z,101671.14
2018-12-04T09:45:54.386Z,101673.40
2018-12-04T09:46:58.419Z,101678.23
2018-12-04T09:48:02.538Z,101676.98
2018-12-04T09:49:06.623Z,101683.25
2018-12-04T09:50:10.882Z,101677.95
2018-12-04T09:51:15.018Z,101682.28
2018-12-04T09:52:20.309Z,101684.19
2018-12-04T09:53:25.357Z,101690.43
2018-12-04T09:54:30.294Z,101694.13
2018-12-04T09:55:34.486Z,101692.06
2018-12-04T09:56:39.031Z,101700.01
2018-12-04T09:57:43.138Z,101697.72
2018-12-04T09:58:47.271Z,101698.57
2018-12-04T09:59:51.402Z,101699.43
2018-12-04T10:00:55.510Z,101702.19
2018-12-04T10:01:59.592Z,101703.02
2018-12-04T10:03:03.819Z,101703.41
2018-12-04T10:04:08.003Z,101705.59
2018-12-04T10:05:12.297Z,101710.77
2018-12-04T10:06:16.350Z,101708.52
2018-12-04T10:07:20.475Z,101712.88
2018-12-04T10:08:24.677Z,101710.11
2018-12-04T10:09:28.999Z,101710.03
2018-12-04T10:10:33.157Z,101708.13
2018-12-04T10:11:37.419Z,101708.13
2018-12-04T10:12:41.570Z,101715.61
2018-12-04T10:13:46.561Z,101709.84
2018-12-04T10:14:50.711Z,101713.23
2018-12-04T10:15:54.869Z,101716.39
2018-12-04T10:16:59.058Z,101712.30
2018-12-04T10:18:03.242Z,101717.02
2018-12-04T10:19:07.539Z,101717.02
2018-12-04T10:20:12.701Z,101723.64
2018-12-04T10:21:16.926Z,101724.61
2018-12-04T10:22:21.156Z,101729.80
2018-12-04T10:23:25.320Z,101723.48
2018-12-04T10:24:29.389Z,101727.73
2018-12-04T10:25:33.456Z,101731.98
2018-12-04T10:26:37.611Z,101732.19
2018-12-04T10:27:41.603Z,101731.87
2018-12-04T10:28:45.702Z,101727.23
2018-12-04T10:29:49.704Z,101735.97
2018-12-04T10:30:59.131Z,101731.98
2018-12-04T10:32:03.283Z,101731.52
2018-12-04T10:33:07.303Z,101730.66
2018-12-04T10:34:11.344Z,101730.27
2018-12-04T10:35:15.392Z,101732.92
2018-12-04T10:36:19.564Z,101735.66
2018-12-04T10:37:23.566Z,101736.62
2018-12-04T10:38:27.606Z,101737.95
2018-12-04T10:39:32.059Z,101737.48
2018-12-04T10:40:36.166Z,101743.14
2018-12-04T10:41:40.186Z,101747.12
2018-12-04T10:42:44.272Z,101744.86
2018-12-04T10:43:48.366Z,101748.75
2018-12-04T10:44:52.579Z,101744.78
2018-12-04T10:45:56.605Z,101746.92
2018-12-04T10:47:00.694Z,101742.02
2018-12-04T10:48:04.758Z,101746.73
2018-12-04T10:49:08.903Z,101747.12
2018-12-04T10:50:13.101Z,101743.92
2018-12-04T10:51:17.098Z,101746.38
2018-12-04T10:52:21.153Z,101746.38
2018-12-04T10:53:25.333Z,101745.33
2018-12-04T10:54:29.420Z,101752.81
2018-12-04T10:55:33.547Z,101754.14
2018-12-04T10:56:37.564Z,101758.47
2018-12-04T10:57:41.613Z,101761.12
2018-12-04T10:58:45.774Z,101769.58
2018-12-04T10:59:49.816Z,101767.01
2018-12-04T11:00:58.040Z,101761.70
2018-12-04T11:02:07.554Z,101762.64
2018-12-04T11:03:13.691Z,101761.23
2018-12-04T11:04:17.750Z,101767.48
2018-12-04T11:05:21.777Z,101772.51
2018-12-04T11:06:26.121Z,101764.28
2018-12-04T11:07:30.136Z,101770.91
2018-12-04T11:08:34.299Z,101776.02
2018-12-04T11:09:38.310Z,101770.25
2018-12-04T11:10:42.370Z,101772.31
2018-12-04T11:11:46.409Z,101771.38
2018-12-04T11:12:50.469Z,101773.05
2018-12-04T11:13:54.837Z,101770.33
2018-12-04T11:14:58.946Z,101778.17
2018-12-04T11:16:03.241Z,101774.58
2018-12-04T11:17:07.278Z,101778.94
2018-12-04T11:18:11.533Z,101780.27
2018-12-04T11:19:15.835Z,101777.15
2018-12-04T11:20:19.887Z,101781.98
2018-12-04T11:21:23.959Z,101778.94
2018-12-04T11:22:28.073Z,101778.09
2018-12-04T11:23:32.228Z,101783.39
2018-12-04T11:24:36.337Z,101784.25
2018-12-04T11:25:40.532Z,101784.99
2018-12-04T11:26:44.582Z,101784.52
2018-12-04T11:27:48.681Z,101787.45
2018-12-04T11:28:52.824Z,101791.34
2018-12-04T11:29:56.883Z,101788.97
2018-12-04T11:31:00.870Z,101793.69
2018-12-04T11:32:05.029Z,101796.92
2018-12-04T11:33:09.097Z,101802.61
2018-12-04T11:34:13.172Z,101806.02
2018-12-04T11:35:17.283Z,101809.80
2018-12-04T11:36:21.294Z,101808.47
2018-12-04T11:37:25.323Z,101804.88
2018-12-04T11:38:29.357Z,101805.62
2018-12-04T11:39:33.357Z,101800.31
2018-12-04T11:40:37.405Z,101804.30
2018-12-04T11:41:41.475Z,101802.49
2018-12-04T11:42:45.490Z,101807.33
2018-12-04T11:43:49.954Z,101810.84
2018-12-04T11:44:54.005Z,101808.08
2018-12-04T11:45:58.039Z,101817.16
2018-12-04T11:47:02.284Z,101809.20
2018-12-04T11:48:06.389Z,101815.64
2018-12-04T11:49:10.412Z,101816.11
2018-12-04T11:50:14.565Z,101816.50
2018-12-04T11:51:18.758Z,101812.91
2018-12-04T11:52:22.888Z,101820.40
2018-12-04T11:53:26.880Z,101824.27
2018-12-04T11:54:31.125Z,101822.47
2018-12-04T11:55:35.341Z,101820.55
2018-12-04T11:56:39.548Z,101817.43
2018-12-04T11:57:43.571Z,101822.27
2018-12-04T11:58:47.719Z,101819.14
2018-12-04T11:59:51.678Z,101824.37
2018-12-04T12:00:55.963Z,101811.27
2018-12-04T12:02:00.071Z,101822.07
2018-12-04T12:03:04.256Z,101820.19
2018-12-04T12:04:08.375Z,101820.66
2018-12-04T12:05:12.462Z,101823.20
2018-12-04T12:06:16.541Z,101819.13
2018-12-04T12:07:20.751Z,101822.64
2018-12-04T12:08:24.914Z,101825.38
2018-12-04T12:09:29.032Z,101819.69
2018-12-04T12:10:33.130Z,101821.98
2018-12-04T12:11:37.292Z,101818.47
2018-12-04T12:12:41.303Z,101815.91
2018-12-04T12:13:45.396Z,101827.49